sensor_id;sensor_type;location;lat;lon;timestamp;P1;durP1;ratioP1;P2;durP2;ratioP2
21254;SDS011;10785;50.674;17.954;2023-08-30T00:00:27;6.72;;;4.78;;
21254;SDS011;10785;50.674;17.954;2023-08-30T00:02:56;7.55;;;3.75;;
21254;SDS011;10785;50.674;17.954;2023-08-30T00:05:26;7.03;;;4.25;;
21254;SDS011;10785;50.674;17.954;2023-08-30T00:07:55;6.82;;;6.20;;
21254;SDS011;10785;50.674;17.954;2023-08-30T00:10:24;4.75;;;3.72;;
21254;SDS011;10785;50.674;17.954;2023-08-30T00:12:52;6.25;;;4.65;;
21254;SDS011;10785;50.674;17.954;2023-08-30T00:15:21;9.05;;;5.03;;
21254;SDS011;10785;50.674;17.954;2023-08-30T00:17:50;5.78;;;3.38;;
21254;SDS011;10785;50.674;17.954;2023-08-30T00:20:20;15.65;;;6.28;;
21254;SDS011;10785;50.674;17.954;2023-08-30T00:22:50;7.55;;;4.38;;
21254;SDS011;10785;50.674;17.954;2023-08-30T00:25:19;5.93;;;3.38;;
21254;SDS011;10785;50.674;17.954;2023-08-30T00:27:48;7.97;;;3.72;;
21254;SDS011;10785;50.674;17.954;2023-08-30T00:30:17;4.47;;;3.50;;
21254;SDS011;10785;50.674;17.954;2023-08-30T00:32:46;10.23;;;3.35;;
21254;SDS011;10785;50.674;17.954;2023-08-30T00:35:15;9.55;;;4.68;;
21254;SDS011;10785;50.674;17.954;2023-08-30T00:37:43;14.18;;;3.53;;
21254;SDS011;10785;50.674;17.954;2023-08-30T00:40:13;3.55;;;2.83;;
21254;SDS011;10785;50.674;17.954;2023-08-30T00:42:42;7.20;;;3.13;;
21254;SDS011;10785;50.674;17.954;2023-08-30T00:45:11;3.67;;;2.30;;
21254;SDS011;10785;50.674;17.954;2023-08-30T00:47:39;8.48;;;3.33;;
21254;SDS011;10785;50.674;17.954;2023-08-30T00:50:08;5.97;;;3.47;;
21254;SDS011;10785;50.674;17.954;2023-08-30T00:52:37;4.25;;;3.58;;
21254;SDS011;10785;50.674;17.954;2023-08-30T00:55:06;6.13;;;4.90;;
21254;SDS011;10785;50.674;17.954;2023-08-30T00:57:37;3.00;;;2.65;;
21254;SDS011;10785;50.674;17.954;2023-08-30T01:00:06;3.90;;;3.45;;
21254;SDS011;10785;50.674;17.954;2023-08-30T01:02:37;6.32;;;4.57;;
21254;SDS011;10785;50.674;17.954;2023-08-30T01:05:06;4.88;;;4.30;;
21254;SDS011;10785;50.674;17.954;2023-08-30T01:07:35;4.80;;;3.53;;
21254;SDS011;10785;50.674;17.954;2023-08-30T01:10:05;3.28;;;2.97;;
21254;SDS011;10785;50.674;17.954;2023-08-30T01:12:36;6.13;;;4.28;;
21254;SDS011;10785;50.674;17.954;2023-08-30T01:15:10;5.00;;;3.22;;
21254;SDS011;10785;50.674;17.954;2023-08-30T01:17:43;6.80;;;4.18;;
21254;SDS011;10785;50.674;17.954;2023-08-30T01:20:14;9.70;;;4.43;;
21254;SDS011;10785;50.674;17.954;2023-08-30T01:22:47;2.08;;;1.95;;
21254;SDS011;10785;50.674;17.954;2023-08-30T01:25:29;5.50;;;3.65;;
21254;SDS011;10785;50.674;17.954;2023-08-30T01:28:04;4.95;;;3.22;;
21254;SDS011;10785;50.674;17.954;2023-08-30T01:30:35;4.60;;;3.15;;
21254;SDS011;10785;50.674;17.954;2023-08-30T01:33:08;2.72;;;2.53;;
21254;SDS011;10785;50.674;17.954;2023-08-30T01:35:37;3.67;;;3.08;;
21254;SDS011;10785;50.674;17.954;2023-08-30T01:38:07;8.50;;;4.35;;
21254;SDS011;10785;50.674;17.954;2023-08-30T01:40:39;4.13;;;2.35;;
21254;SDS011;10785;50.674;17.954;2023-08-30T01:43:11;4.65;;;4.18;;
21254;SDS011;10785;50.674;17.954;2023-08-30T01:45:41;3.33;;;3.03;;
21254;SDS011;10785;50.674;17.954;2023-08-30T01:48:12;3.17;;;2.17;;
21254;SDS011;10785;50.674;17.954;2023-08-30T01:50:43;2.45;;;2.25;;
21254;SDS011;10785;50.674;17.954;2023-08-30T01:53:14;5.22;;;1.88;;
21254;SDS011;10785;50.674;17.954;2023-08-30T01:55:43;5.15;;;2.92;;
21254;SDS011;10785;50.674;17.954;2023-08-30T01:58:13;3.42;;;2.58;;
21254;SDS011;10785;50.674;17.954;2023-08-30T02:00:42;5.30;;;2.58;;
21254;SDS011;10785;50.674;17.954;2023-08-30T02:03:11;3.95;;;3.08;;
21254;SDS011;10785;50.674;17.954;2023-08-30T02:05:43;5.38;;;2.25;;
21254;SDS011;10785;50.674;17.954;2023-08-30T02:08:20;10.38;;;2.60;;
21254;SDS011;10785;50.674;17.954;2023-08-30T02:10:55;2.35;;;1.83;;
21254;SDS011;10785;50.674;17.954;2023-08-30T02:13:49;3.25;;;1.25;;
21254;SDS011;10785;50.674;17.954;2023-08-30T02:16:20;1.92;;;1.60;;
21254;SDS011;10785;50.674;17.954;2023-08-30T02:18:50;4.22;;;2.28;;
21254;SDS011;10785;50.674;17.954;2023-08-30T02:21:19;2.70;;;2.00;;
21254;SDS011;10785;50.674;17.954;2023-08-30T02:26:57;2.50;;;2.30;;
21254;SDS011;10785;50.674;17.954;2023-08-30T02:29:28;5.13;;;2.70;;
21254;SDS011;10785;50.674;17.954;2023-08-30T02:31:58;5.05;;;2.63;;
21254;SDS011;10785;50.674;17.954;2023-08-30T02:34:27;4.10;;;3.20;;
21254;SDS011;10785;50.674;17.954;2023-08-30T02:36:56;5.22;;;1.80;;
21254;SDS011;10785;50.674;17.954;2023-08-30T02:39:24;5.03;;;3.17;;
21254;SDS011;10785;50.674;17.954;2023-08-30T02:41:53;5.35;;;2.05;;
21254;SDS011;10785;50.674;17.954;2023-08-30T02:44:21;5.70;;;2.67;;
21254;SDS011;10785;50.674;17.954;2023-08-30T02:46:51;3.72;;;2.83;;
21254;SDS011;10785;50.674;17.954;2023-08-30T02:49:20;5.03;;;2.90;;
21254;SDS011;10785;50.674;17.954;2023-08-30T02:51:50;6.82;;;2.78;;
21254;SDS011;10785;50.674;17.954;2023-08-30T02:54:18;16.52;;;3.13;;
21254;SDS011;10785;50.674;17.954;2023-08-30T02:56:47;2.95;;;2.45;;
21254;SDS011;10785;50.674;17.954;2023-08-30T02:59:16;8.57;;;4.55;;
21254;SDS011;10785;50.674;17.954;2023-08-30T03:01:45;5.45;;;3.47;;
21254;SDS011;10785;50.674;17.954;2023-08-30T03:04:17;2.63;;;2.42;;
21254;SDS011;10785;50.674;17.954;2023-08-30T03:06:46;4.50;;;2.70;;
21254;SDS011;10785;50.674;17.954;2023-08-30T03:09:14;2.08;;;1.98;;
21254;SDS011;10785;50.674;17.954;2023-08-30T03:11:44;1.98;;;1.88;;
21254;SDS011;10785;50.674;17.954;2023-08-30T03:14:12;2.45;;;2.13;;
21254;SDS011;10785;50.674;17.954;2023-08-30T03:16:43;3.03;;;2.28;;
21254;SDS011;10785;50.674;17.954;2023-08-30T03:19:13;2.47;;;2.13;;
21254;SDS011;10785;50.674;17.954;2023-08-30T03:21:45;7.57;;;2.28;;
21254;SDS011;10785;50.674;17.954;2023-08-30T03:24:14;3.45;;;2.53;;
21254;SDS011;10785;50.674;17.954;2023-08-30T03:26:43;4.22;;;2.95;;
21254;SDS011;10785;50.674;17.954;2023-08-30T03:29:12;3.70;;;3.45;;
21254;SDS011;10785;50.674;17.954;2023-08-30T03:31:41;5.00;;;3.47;;
21254;SDS011;10785;50.674;17.954;2023-08-30T03:34:10;2.05;;;1.92;;
21254;SDS011;10785;50.674;17.954;2023-08-30T03:36:40;2.35;;;1.88;;
21254;SDS011;10785;50.674;17.954;2023-08-30T03:39:12;8.50;;;3.72;;
21254;SDS011;10785;50.674;17.954;2023-08-30T03:41:40;11.68;;;2.20;;
21254;SDS011;10785;50.674;17.954;2023-08-30T03:44:09;10.18;;;4.10;;
21254;SDS011;10785;50.674;17.954;2023-08-30T03:46:38;4.00;;;2.42;;
21254;SDS011;10785;50.674;17.954;2023-08-30T03:49:07;2.35;;;2.03;;
21254;SDS011;10785;50.674;17.954;2023-08-30T03:51:35;3.20;;;2.05;;
21254;SDS011;10785;50.674;17.954;2023-08-30T03:54:04;4.03;;;1.83;;
21254;SDS011;10785;50.674;17.954;2023-08-30T03:56:34;2.88;;;1.73;;
21254;SDS011;10785;50.674;17.954;2023-08-30T03:59:03;3.13;;;1.02;;
21254;SDS011;10785;50.674;17.954;2023-08-30T04:01:32;1.40;;;1.15;;
21254;SDS011;10785;50.674;17.954;2023-08-30T04:04:00;2.28;;;2.00;;
21254;SDS011;10785;50.674;17.954;2023-08-30T04:06:29;4.00;;;3.50;;
21254;SDS011;10785;50.674;17.954;2023-08-30T04:08:58;1.80;;;1.67;;
21254;SDS011;10785;50.674;17.954;2023-08-30T04:11:27;2.33;;;2.17;;
21254;SDS011;10785;50.674;17.954;2023-08-30T04:13:57;1.05;;;1.05;;
21254;SDS011;10785;50.674;17.954;2023-08-30T04:16:25;2.47;;;1.77;;
21254;SDS011;10785;50.674;17.954;2023-08-30T04:18:54;4.28;;;2.25;;
21254;SDS011;10785;50.674;17.954;2023-08-30T04:21:23;1.95;;;0.85;;
21254;SDS011;10785;50.674;17.954;2023-08-30T04:23:52;2.40;;;1.67;;
21254;SDS011;10785;50.674;17.954;2023-08-30T04:26:21;2.40;;;1.95;;
21254;SDS011;10785;50.674;17.954;2023-08-30T04:28:50;0.52;;;0.52;;
21254;SDS011;10785;50.674;17.954;2023-08-30T04:31:21;2.78;;;1.63;;
21254;SDS011;10785;50.674;17.954;2023-08-30T04:33:49;2.85;;;1.73;;
21254;SDS011;10785;50.674;17.954;2023-08-30T04:36:20;2.45;;;1.83;;
21254;SDS011;10785;50.674;17.954;2023-08-30T04:38:49;1.27;;;1.27;;
21254;SDS011;10785;50.674;17.954;2023-08-30T04:41:28;3.45;;;1.42;;
21254;SDS011;10785;50.674;17.954;2023-08-30T04:43:56;3.90;;;1.95;;
21254;SDS011;10785;50.674;17.954;2023-08-30T04:46:26;3.13;;;1.65;;
21254;SDS011;10785;50.674;17.954;2023-08-30T04:48:55;0.93;;;0.90;;
21254;SDS011;10785;50.674;17.954;2023-08-30T04:51:24;3.33;;;3.05;;
21254;SDS011;10785;50.674;17.954;2023-08-30T04:53:52;4.57;;;4.13;;
21254;SDS011;10785;50.674;17.954;2023-08-30T04:56:21;1.85;;;1.55;;
21254;SDS011;10785;50.674;17.954;2023-08-30T04:58:50;7.68;;;2.83;;
21254;SDS011;10785;50.674;17.954;2023-08-30T05:01:19;2.03;;;1.90;;
21254;SDS011;10785;50.674;17.954;2023-08-30T05:03:52;2.10;;;1.73;;
21254;SDS011;10785;50.674;17.954;2023-08-30T05:06:22;2.47;;;2.13;;
21254;SDS011;10785;50.674;17.954;2023-08-30T05:08:51;2.95;;;2.75;;
21254;SDS011;10785;50.674;17.954;2023-08-30T05:11:20;0.70;;;0.70;;
21254;SDS011;10785;50.674;17.954;2023-08-30T05:13:49;1.90;;;1.80;;
21254;SDS011;10785;50.674;17.954;2023-08-30T05:16:18;2.90;;;2.70;;
21254;SDS011;10785;50.674;17.954;2023-08-30T05:18:49;2.67;;;2.47;;
21254;SDS011;10785;50.674;17.954;2023-08-30T05:21:19;1.75;;;1.65;;
21254;SDS011;10785;50.674;17.954;2023-08-30T05:23:48;2.42;;;2.22;;
21254;SDS011;10785;50.674;17.954;2023-08-30T05:26:17;2.20;;;2.03;;
21254;SDS011;10785;50.674;17.954;2023-08-30T05:28:46;2.65;;;2.45;;
21254;SDS011;10785;50.674;17.954;2023-08-30T05:31:15;8.88;;;2.30;;
21254;SDS011;10785;50.674;17.954;2023-08-30T05:34:19;3.50;;;2.60;;
21254;SDS011;10785;50.674;17.954;2023-08-30T05:37:27;4.88;;;3.30;;
21254;SDS011;10785;50.674;17.954;2023-08-30T05:40:15;2.47;;;1.67;;
21254;SDS011;10785;50.674;17.954;2023-08-30T05:42:45;3.92;;;2.53;;
21254;SDS011;10785;50.674;17.954;2023-08-30T05:45:13;2.28;;;2.08;;
21254;SDS011;10785;50.674;17.954;2023-08-30T05:47:42;4.60;;;2.75;;
21254;SDS011;10785;50.674;17.954;2023-08-30T05:50:11;4.05;;;2.78;;
21254;SDS011;10785;50.674;17.954;2023-08-30T05:52:42;2.15;;;1.90;;
21254;SDS011;10785;50.674;17.954;2023-08-30T05:55:11;4.88;;;2.92;;
21254;SDS011;10785;50.674;17.954;2023-08-30T05:57:40;2.55;;;2.35;;
21254;SDS011;10785;50.674;17.954;2023-08-30T06:00:09;3.58;;;3.25;;
21254;SDS011;10785;50.674;17.954;2023-08-30T06:02:40;2.40;;;2.20;;
21254;SDS011;10785;50.674;17.954;2023-08-30T06:05:08;5.95;;;4.18;;
21254;SDS011;10785;50.674;17.954;2023-08-30T06:07:37;2.50;;;2.30;;
21254;SDS011;10785;50.674;17.954;2023-08-30T06:10:08;5.53;;;2.35;;
21254;SDS011;10785;50.674;17.954;2023-08-30T06:12:38;8.38;;;3.97;;
21254;SDS011;10785;50.674;17.954;2023-08-30T06:15:07;2.00;;;1.17;;
21254;SDS011;10785;50.674;17.954;2023-08-30T06:17:36;2.33;;;1.80;;
21254;SDS011;10785;50.674;17.954;2023-08-30T06:20:05;1.08;;;1.08;;
21254;SDS011;10785;50.674;17.954;2023-08-30T06:22:34;2.17;;;1.42;;
21254;SDS011;10785;50.674;17.954;2023-08-30T06:25:03;2.83;;;2.58;;
21254;SDS011;10785;50.674;17.954;2023-08-30T06:27:36;1.63;;;1.48;;
21254;SDS011;10785;50.674;17.954;2023-08-30T06:30:22;6.00;;;1.98;;
21254;SDS011;10785;50.674;17.954;2023-08-30T06:32:50;0.70;;;0.70;;
21254;SDS011;10785;50.674;17.954;2023-08-30T06:35:20;2.10;;;0.95;;
21254;SDS011;10785;50.674;17.954;2023-08-30T06:37:49;1.92;;;1.75;;
21254;SDS011;10785;50.674;17.954;2023-08-30T06:40:17;15.98;;;2.22;;
21254;SDS011;10785;50.674;17.954;2023-08-30T06:42:48;1.65;;;1.02;;
21254;SDS011;10785;50.674;17.954;2023-08-30T06:45:16;5.78;;;1.85;;
21254;SDS011;10785;50.674;17.954;2023-08-30T06:47:45;1.75;;;1.45;;
21254;SDS011;10785;50.674;17.954;2023-08-30T06:50:15;0.75;;;0.75;;
21254;SDS011;10785;50.674;17.954;2023-08-30T06:52:44;2.10;;;1.85;;
21254;SDS011;10785;50.674;17.954;2023-08-30T06:55:13;9.18;;;1.98;;
21254;SDS011;10785;50.674;17.954;2023-08-30T06:57:47;1.13;;;1.02;;
21254;SDS011;10785;50.674;17.954;2023-08-30T07:00:17;1.45;;;1.35;;
21254;SDS011;10785;50.674;17.954;2023-08-30T07:02:46;1.75;;;1.40;;
21254;SDS011;10785;50.674;17.954;2023-08-30T07:05:15;5.80;;;2.00;;
21254;SDS011;10785;50.674;17.954;2023-08-30T07:07:44;0.77;;;0.77;;
21254;SDS011;10785;50.674;17.954;2023-08-30T07:10:12;2.78;;;1.83;;
21254;SDS011;10785;50.674;17.954;2023-08-30T07:12:41;1.40;;;1.05;;
21254;SDS011;10785;50.674;17.954;2023-08-30T07:15:11;1.40;;;1.30;;
21254;SDS011;10785;50.674;17.954;2023-08-30T07:17:43;4.10;;;1.50;;
21254;SDS011;10785;50.674;17.954;2023-08-30T07:20:20;0.90;;;0.90;;
21254;SDS011;10785;50.674;17.954;2023-08-30T07:22:49;1.33;;;1.25;;
21254;SDS011;10785;50.674;17.954;2023-08-30T07:25:17;7.00;;;1.25;;
21254;SDS011;10785;50.674;17.954;2023-08-30T07:27:46;1.73;;;1.55;;
21254;SDS011;10785;50.674;17.954;2023-08-30T07:30:16;1.70;;;1.60;;
21254;SDS011;10785;50.674;17.954;2023-08-30T07:32:45;1.58;;;1.48;;
21254;SDS011;10785;50.674;17.954;2023-08-30T07:35:14;2.28;;;2.08;;
21254;SDS011;10785;50.674;17.954;2023-08-30T07:37:43;2.75;;;1.92;;
21254;SDS011;10785;50.674;17.954;2023-08-30T07:40:12;1.70;;;1.38;;
21254;SDS011;10785;50.674;17.954;2023-08-30T07:42:41;1.08;;;1.08;;
21254;SDS011;10785;50.674;17.954;2023-08-30T07:45:09;1.63;;;1.52;;
21254;SDS011;10785;50.674;17.954;2023-08-30T07:47:39;5.25;;;1.65;;
21254;SDS011;10785;50.674;17.954;2023-08-30T07:50:08;2.05;;;1.75;;
21254;SDS011;10785;50.674;17.954;2023-08-30T07:52:37;2.15;;;1.95;;
21254;SDS011;10785;50.674;17.954;2023-08-30T07:55:12;2.03;;;1.42;;
21254;SDS011;10785;50.674;17.954;2023-08-30T07:57:41;6.65;;;2.35;;
21254;SDS011;10785;50.674;17.954;2023-08-30T08:00:10;2.95;;;1.98;;
21254;SDS011;10785;50.674;17.954;2023-08-30T08:02:45;7.78;;;1.45;;
21254;SDS011;10785;50.674;17.954;2023-08-30T08:05:14;3.40;;;3.10;;
21254;SDS011;10785;50.674;17.954;2023-08-30T08:07:43;1.95;;;1.70;;
21254;SDS011;10785;50.674;17.954;2023-08-30T08:10:12;2.25;;;1.67;;
21254;SDS011;10785;50.674;17.954;2023-08-30T08:12:41;1.75;;;1.27;;
21254;SDS011;10785;50.674;17.954;2023-08-30T08:15:10;3.00;;;1.30;;
21254;SDS011;10785;50.674;17.954;2023-08-30T08:17:38;1.40;;;1.30;;
21254;SDS011;10785;50.674;17.954;2023-08-30T08:20:09;2.35;;;1.38;;
21254;SDS011;10785;50.674;17.954;2023-08-30T08:22:38;2.95;;;1.73;;
21254;SDS011;10785;50.674;17.954;2023-08-30T08:25:07;2.20;;;2.00;;
21254;SDS011;10785;50.674;17.954;2023-08-30T08:27:37;1.65;;;1.40;;
21254;SDS011;10785;50.674;17.954;2023-08-30T08:30:06;1.60;;;1.50;;
21254;SDS011;10785;50.674;17.954;2023-08-30T08:32:36;2.17;;;2.05;;
21254;SDS011;10785;50.674;17.954;2023-08-30T08:35:05;4.60;;;1.83;;
21254;SDS011;10785;50.674;17.954;2023-08-30T08:37:35;3.90;;;2.63;;
21254;SDS011;10785;50.674;17.954;2023-08-30T08:40:05;1.55;;;1.45;;
21254;SDS011;10785;50.674;17.954;2023-08-30T08:42:36;0.90;;;0.90;;
21254;SDS011;10785;50.674;17.954;2023-08-30T08:45:05;6.13;;;3.40;;
21254;SDS011;10785;50.674;17.954;2023-08-30T08:47:37;1.83;;;1.63;;
21254;SDS011;10785;50.674;17.954;2023-08-30T08:50:07;3.13;;;2.28;;
21254;SDS011;10785;50.674;17.954;2023-08-30T08:52:37;2.65;;;2.15;;
21254;SDS011;10785;50.674;17.954;2023-08-30T08:55:25;1.08;;;0.88;;
21254;SDS011;10785;50.674;17.954;2023-08-30T08:57:57;1.70;;;1.60;;
21254;SDS011;10785;50.674;17.954;2023-08-30T09:00:26;1.60;;;1.20;;
21254;SDS011;10785;50.674;17.954;2023-08-30T09:02:58;1.05;;;1.05;;
21254;SDS011;10785;50.674;17.954;2023-08-30T09:05:27;2.45;;;2.00;;
21254;SDS011;10785;50.674;17.954;2023-08-30T09:07:58;3.33;;;3.05;;
21254;SDS011;10785;50.674;17.954;2023-08-30T09:10:28;1.77;;;1.60;;
21254;SDS011;10785;50.674;17.954;2023-08-30T09:12:57;2.35;;;2.10;;
21254;SDS011;10785;50.674;17.954;2023-08-30T09:15:30;1.20;;;1.20;;
21254;SDS011;10785;50.674;17.954;2023-08-30T09:17:59;1.23;;;1.10;;
21254;SDS011;10785;50.674;17.954;2023-08-30T09:20:28;3.05;;;1.67;;
21254;SDS011;10785;50.674;17.954;2023-08-30T09:22:58;1.80;;;0.95;;
21254;SDS011;10785;50.674;17.954;2023-08-30T09:25:27;1.92;;;1.63;;
21254;SDS011;10785;50.674;17.954;2023-08-30T09:27:57;2.63;;;1.90;;
21254;SDS011;10785;50.674;17.954;2023-08-30T09:30:27;4.30;;;2.50;;
21254;SDS011;10785;50.674;17.954;2023-08-30T09:33:00;1.63;;;1.52;;
21254;SDS011;10785;50.674;17.954;2023-08-30T09:35:30;1.40;;;1.25;;
21254;SDS011;10785;50.674;17.954;2023-08-30T09:38:00;1.63;;;1.20;;
21254;SDS011;10785;50.674;17.954;2023-08-30T09:40:29;6.22;;;1.60;;
21254;SDS011;10785;50.674;17.954;2023-08-30T09:42:58;1.48;;;1.33;;
21254;SDS011;10785;50.674;17.954;2023-08-30T09:45:39;0.82;;;0.82;;
21254;SDS011;10785;50.674;17.954;2023-08-30T09:48:08;1.75;;;1.20;;
21254;SDS011;10785;50.674;17.954;2023-08-30T09:50:37;1.95;;;0.40;;
21254;SDS011;10785;50.674;17.954;2023-08-30T09:53:11;1.48;;;1.08;;
21254;SDS011;10785;50.674;17.954;2023-08-30T09:55:42;0.75;;;0.75;;
21254;SDS011;10785;50.674;17.954;2023-08-30T09:58:11;3.80;;;1.10;;
21254;SDS011;10785;50.674;17.954;2023-08-30T10:00:46;1.15;;;0.77;;
21254;SDS011;10785;50.674;17.954;2023-08-30T10:03:15;1.95;;;1.10;;
21254;SDS011;10785;50.674;17.954;2023-08-30T10:05:57;0.60;;;0.60;;
21254;SDS011;10785;50.674;17.954;2023-08-30T10:08:31;0.40;;;0.40;;
21254;SDS011;10785;50.674;17.954;2023-08-30T10:11:03;1.08;;;1.05;;
21254;SDS011;10785;50.674;17.954;2023-08-30T10:13:33;1.05;;;0.75;;
21254;SDS011;10785;50.674;17.954;2023-08-30T10:16:06;0.95;;;0.95;;
21254;SDS011;10785;50.674;17.954;2023-08-30T10:18:38;1.15;;;1.05;;
21254;SDS011;10785;50.674;17.954;2023-08-30T10:21:18;0.88;;;0.88;;
21254;SDS011;10785;50.674;17.954;2023-08-30T10:23:49;1.92;;;0.73;;
21254;SDS011;10785;50.674;17.954;2023-08-30T10:26:22;1.05;;;1.05;;
21254;SDS011;10785;50.674;17.954;2023-08-30T10:28:52;2.35;;;1.05;;
21254;SDS011;10785;50.674;17.954;2023-08-30T10:31:22;1.35;;;1.25;;
21254;SDS011;10785;50.674;17.954;2023-08-30T10:33:54;4.38;;;2.33;;
21254;SDS011;10785;50.674;17.954;2023-08-30T10:36:23;0.68;;;0.68;;
21254;SDS011;10785;50.674;17.954;2023-08-30T10:38:54;0.93;;;0.80;;
21254;SDS011;10785;50.674;17.954;2023-08-30T10:41:24;0.98;;;0.55;;
21254;SDS011;10785;50.674;17.954;2023-08-30T10:43:54;2.38;;;0.93;;
21254;SDS011;10785;50.674;17.954;2023-08-30T10:46:29;2.22;;;1.52;;
21254;SDS011;10785;50.674;17.954;2023-08-30T10:49:08;1.27;;;1.10;;
21254;SDS011;10785;50.674;17.954;2023-08-30T10:51:38;2.83;;;1.38;;
21254;SDS011;10785;50.674;17.954;2023-08-30T10:54:11;1.63;;;1.35;;
21254;SDS011;10785;50.674;17.954;2023-08-30T10:56:46;0.30;;;0.30;;
21254;SDS011;10785;50.674;17.954;2023-08-30T10:59:16;0.88;;;0.88;;
21254;SDS011;10785;50.674;17.954;2023-08-30T11:01:46;0.52;;;0.43;;
21254;SDS011;10785;50.674;17.954;2023-08-30T11:04:15;0.95;;;0.95;;
21254;SDS011;10785;50.674;17.954;2023-08-30T11:06:45;0.77;;;0.52;;
21254;SDS011;10785;50.674;17.954;2023-08-30T11:09:20;0.90;;;0.90;;
21254;SDS011;10785;50.674;17.954;2023-08-30T11:11:50;0.38;;;0.38;;
21254;SDS011;10785;50.674;17.954;2023-08-30T11:14:19;0.68;;;0.68;;
21254;SDS011;10785;50.674;17.954;2023-08-30T11:16:48;1.27;;;0.65;;
21254;SDS011;10785;50.674;17.954;2023-08-30T11:19:17;0.88;;;0.40;;
21254;SDS011;10785;50.674;17.954;2023-08-30T11:21:45;1.45;;;0.57;;
21254;SDS011;10785;50.674;17.954;2023-08-30T11:24:14;0.70;;;0.35;;
21254;SDS011;10785;50.674;17.954;2023-08-30T11:26:44;0.82;;;0.82;;
21254;SDS011;10785;50.674;17.954;2023-08-30T11:29:13;0.95;;;0.93;;
21254;SDS011;10785;50.674;17.954;2023-08-30T11:31:43;0.75;;;0.38;;
21254;SDS011;10785;50.674;17.954;2023-08-30T11:34:13;0.43;;;0.43;;
21254;SDS011;10785;50.674;17.954;2023-08-30T11:36:42;0.90;;;0.60;;
21254;SDS011;10785;50.674;17.954;2023-08-30T11:39:11;0.43;;;0.43;;
21254;SDS011;10785;50.674;17.954;2023-08-30T11:41:40;1.00;;;0.88;;
21254;SDS011;10785;50.674;17.954;2023-08-30T11:44:11;0.93;;;0.93;;
21254;SDS011;10785;50.674;17.954;2023-08-30T11:46:39;0.60;;;0.60;;
21254;SDS011;10785;50.674;17.954;2023-08-30T11:49:08;0.50;;;0.40;;
21254;SDS011;10785;50.674;17.954;2023-08-30T11:51:37;0.50;;;0.50;;
21254;SDS011;10785;50.674;17.954;2023-08-30T11:54:06;1.00;;;0.63;;
21254;SDS011;10785;50.674;17.954;2023-08-30T11:56:35;0.52;;;0.52;;
21254;SDS011;10785;50.674;17.954;2023-08-30T11:59:04;0.75;;;0.75;;
21254;SDS011;10785;50.674;17.954;2023-08-30T12:01:35;0.60;;;0.60;;
21254;SDS011;10785;50.674;17.954;2023-08-30T12:04:10;0.55;;;0.55;;
21254;SDS011;10785;50.674;17.954;2023-08-30T12:06:59;1.25;;;0.68;;
21254;SDS011;10785;50.674;17.954;2023-08-30T12:09:31;0.45;;;0.40;;
21254;SDS011;10785;50.674;17.954;2023-08-30T12:12:06;0.38;;;0.38;;
21254;SDS011;10785;50.674;17.954;2023-08-30T12:14:37;0.70;;;0.70;;
21254;SDS011;10785;50.674;17.954;2023-08-30T12:17:08;1.00;;;0.90;;
21254;SDS011;10785;50.674;17.954;2023-08-30T12:19:39;0.77;;;0.75;;
21254;SDS011;10785;50.674;17.954;2023-08-30T12:22:13;1.00;;;1.00;;
21254;SDS011;10785;50.674;17.954;2023-08-30T12:24:42;0.43;;;0.40;;
21254;SDS011;10785;50.674;17.954;2023-08-30T12:27:12;0.90;;;0.90;;
21254;SDS011;10785;50.674;17.954;2023-08-30T12:29:41;0.75;;;0.75;;
21254;SDS011;10785;50.674;17.954;2023-08-30T12:32:11;0.45;;;0.45;;
21254;SDS011;10785;50.674;17.954;2023-08-30T12:34:40;1.00;;;0.40;;
21254;SDS011;10785;50.674;17.954;2023-08-30T12:37:09;0.40;;;0.40;;
21254;SDS011;10785;50.674;17.954;2023-08-30T12:39:37;0.70;;;0.70;;
21254;SDS011;10785;50.674;17.954;2023-08-30T12:42:06;0.82;;;0.70;;
21254;SDS011;10785;50.674;17.954;2023-08-30T12:44:36;0.80;;;0.80;;
21254;SDS011;10785;50.674;17.954;2023-08-30T12:47:04;0.55;;;0.55;;
21254;SDS011;10785;50.674;17.954;2023-08-30T12:49:35;1.08;;;1.08;;
21254;SDS011;10785;50.674;17.954;2023-08-30T12:52:03;0.85;;;0.85;;
21254;SDS011;10785;50.674;17.954;2023-08-30T12:54:32;0.80;;;0.80;;
21254;SDS011;10785;50.674;17.954;2023-08-30T12:57:01;0.73;;;0.52;;
21254;SDS011;10785;50.674;17.954;2023-08-30T12:59:30;0.40;;;0.40;;
21254;SDS011;10785;50.674;17.954;2023-08-30T13:01:58;0.70;;;0.70;;
21254;SDS011;10785;50.674;17.954;2023-08-30T13:04:27;0.98;;;0.85;;
21254;SDS011;10785;50.674;17.954;2023-08-30T13:06:57;0.90;;;0.85;;
21254;SDS011;10785;50.674;17.954;2023-08-30T13:09:26;0.98;;;0.98;;
21254;SDS011;10785;50.674;17.954;2023-08-30T13:11:54;2.72;;;1.10;;
21254;SDS011;10785;50.674;17.954;2023-08-30T13:14:23;1.50;;;0.57;;
21254;SDS011;10785;50.674;17.954;2023-08-30T13:16:52;1.08;;;1.05;;
21254;SDS011;10785;50.674;17.954;2023-08-30T13:19:20;0.95;;;0.95;;
21254;SDS011;10785;50.674;17.954;2023-08-30T13:21:49;0.88;;;0.88;;
21254;SDS011;10785;50.674;17.954;2023-08-30T13:24:19;0.93;;;0.82;;
21254;SDS011;10785;50.674;17.954;2023-08-30T13:26:48;0.60;;;0.60;;
21254;SDS011;10785;50.674;17.954;2023-08-30T13:29:17;0.95;;;0.70;;
21254;SDS011;10785;50.674;17.954;2023-08-30T13:31:45;0.32;;;0.32;;
21254;SDS011;10785;50.674;17.954;2023-08-30T13:34:14;0.85;;;0.85;;
21254;SDS011;10785;50.674;17.954;2023-08-30T13:36:42;0.40;;;0.40;;
21254;SDS011;10785;50.674;17.954;2023-08-30T13:39:11;0.73;;;0.73;;
21254;SDS011;10785;50.674;17.954;2023-08-30T13:41:42;1.58;;;0.93;;
21254;SDS011;10785;50.674;17.954;2023-08-30T13:44:11;0.68;;;0.68;;
21254;SDS011;10785;50.674;17.954;2023-08-30T13:46:40;0.63;;;0.60;;
21254;SDS011;10785;50.674;17.954;2023-08-30T13:49:12;0.75;;;0.75;;
21254;SDS011;10785;50.674;17.954;2023-08-30T13:51:41;0.75;;;0.75;;
21254;SDS011;10785;50.674;17.954;2023-08-30T13:54:09;0.70;;;0.70;;
21254;SDS011;10785;50.674;17.954;2023-08-30T13:56:38;0.57;;;0.57;;
21254;SDS011;10785;50.674;17.954;2023-08-30T13:59:09;0.95;;;0.70;;
21254;SDS011;10785;50.674;17.954;2023-08-30T14:01:38;2.15;;;1.30;;
21254;SDS011;10785;50.674;17.954;2023-08-30T14:04:06;0.73;;;0.73;;
21254;SDS011;10785;50.674;17.954;2023-08-30T14:06:35;0.77;;;0.70;;
21254;SDS011;10785;50.674;17.954;2023-08-30T14:09:04;1.33;;;1.15;;
21254;SDS011;10785;50.674;17.954;2023-08-30T14:11:35;0.85;;;0.60;;
21254;SDS011;10785;50.674;17.954;2023-08-30T14:14:04;1.13;;;1.02;;
21254;SDS011;10785;50.674;17.954;2023-08-30T14:16:35;0.40;;;0.40;;
21254;SDS011;10785;50.674;17.954;2023-08-30T14:19:03;0.95;;;0.85;;
21254;SDS011;10785;50.674;17.954;2023-08-30T14:21:33;1.05;;;0.70;;
21254;SDS011;10785;50.674;17.954;2023-08-30T14:24:01;0.50;;;0.50;;
21254;SDS011;10785;50.674;17.954;2023-08-30T14:26:30;0.45;;;0.45;;
21254;SDS011;10785;50.674;17.954;2023-08-30T14:28:59;0.80;;;0.80;;
21254;SDS011;10785;50.674;17.954;2023-08-30T14:31:28;0.45;;;0.45;;
21254;SDS011;10785;50.674;17.954;2023-08-30T14:33:59;0.63;;;0.43;;
21254;SDS011;10785;50.674;17.954;2023-08-30T14:36:27;0.60;;;0.60;;
21254;SDS011;10785;50.674;17.954;2023-08-30T14:38:56;0.77;;;0.73;;
21254;SDS011;10785;50.674;17.954;2023-08-30T14:41:25;0.32;;;0.32;;
21254;SDS011;10785;50.674;17.954;2023-08-30T14:43:54;1.75;;;1.27;;
21254;SDS011;10785;50.674;17.954;2023-08-30T14:46:23;0.82;;;0.68;;
21254;SDS011;10785;50.674;17.954;2023-08-30T14:48:51;0.77;;;0.70;;
21254;SDS011;10785;50.674;17.954;2023-08-30T14:51:21;0.43;;;0.43;;
21254;SDS011;10785;50.674;17.954;2023-08-30T14:53:50;0.68;;;0.57;;